sensor_id;sensor_type;location;lat;lon;timestamp;temperature;humidity
19132;DHT22;9698;51.976;7.570;2023-08-06T00:12:59;16.70;99.90
19132;DHT22;9698;51.976;7.570;2023-08-06T00:15:27;16.70;99.90
19132;DHT22;9698;51.976;7.570;2023-08-06T00:20:23;16.50;99.90
19132;DHT22;9698;51.976;7.570;2023-08-06T00:25:19;16.50;99.90
19132;DHT22;9698;51.976;7.570;2023-08-06T00:27:47;16.60;99.90
19132;DHT22;9698;51.976;7.570;2023-08-06T00:32:42;16.60;99.90
19132;DHT22;9698;51.976;7.570;2023-08-06T00:35:11;16.60;99.90
19132;DHT22;9698;51.976;7.570;2023-08-06T00:37:40;16.50;99.90
19132;DHT22;9698;51.976;7.570;2023-08-06T00:52:28;16.50;99.90
19132;DHT22;9698;51.976;7.570;2023-08-06T00:54:56;16.60;99.90
19132;DHT22;9698;51.976;7.570;2023-08-06T00:57:25;16.70;99.90
19132;DHT22;9698;51.976;7.570;2023-08-06T01:07:27;16.50;99.90
19132;DHT22;9698;51.976;7.570;2023-08-06T01:12:51;16.60;99.90
19132;DHT22;9698;51.976;7.570;2023-08-06T01:20:18;16.60;99.90
19132;DHT22;9698;51.976;7.570;2023-08-06T01:25:15;16.70;99.90
19132;DHT22;9698;51.976;7.570;2023-08-06T01:27:46;16.60;99.90
19132;DHT22;9698;51.976;7.570;2023-08-06T01:40:13;16.40;99.90
19132;DHT22;9698;51.976;7.570;2023-08-06T02:02:25;16.50;99.90
19132;DHT22;9698;51.976;7.570;2023-08-06T02:09:48;16.50;99.90
19132;DHT22;9698;51.976;7.570;2023-08-06T02:12:16;16.50;99.90
19132;DHT22;9698;51.976;7.570;2023-08-06T02:14:43;16.50;99.90
19132;DHT22;9698;51.976;7.570;2023-08-06T02:19:39;16.50;99.90
19132;DHT22;9698;51.976;7.570;2023-08-06T02:22:07;16.50;99.90
19132;DHT22;9698;51.976;7.570;2023-08-06T02:31:57;14.10;99.90
19132;DHT22;9698;51.976;7.570;2023-08-06T02:34:26;16.50;99.90
19132;DHT22;9698;51.976;7.570;2023-08-06T02:36:54;16.40;99.90
19132;DHT22;9698;51.976;7.570;2023-08-06T02:49:13;16.30;99.90
19132;DHT22;9698;51.976;7.570;2023-08-06T02:51:40;16.40;99.90
19132;DHT22;9698;51.976;7.570;2023-08-06T02:54:08;16.30;99.90
19132;DHT22;9698;51.976;7.570;2023-08-06T03:06:26;16.20;99.90
19132;DHT22;9698;51.976;7.570;2023-08-06T03:08:54;16.40;99.90
19132;DHT22;9698;51.976;7.570;2023-08-06T03:13:49;16.40;99.90
19132;DHT22;9698;51.976;7.570;2023-08-06T03:23:40;16.20;99.90
19132;DHT22;9698;51.976;7.570;2023-08-06T03:26:08;16.20;99.90
19132;DHT22;9698;51.976;7.570;2023-08-06T03:31:04;16.30;99.90
19132;DHT22;9698;51.976;7.570;2023-08-06T03:35:59;16.30;99.90
19132;DHT22;9698;51.976;7.570;2023-08-06T03:45:50;16.40;99.90
19132;DHT22;9698;51.976;7.570;2023-08-06T03:48:18;16.40;99.90
19132;DHT22;9698;51.976;7.570;2023-08-06T03:55:41;16.20;99.90
19132;DHT22;9698;51.976;7.570;2023-08-06T03:58:09;16.30;99.90
19132;DHT22;9698;51.976;7.570;2023-08-06T04:03:04;16.40;99.90
19132;DHT22;9698;51.976;7.570;2023-08-06T04:05:32;16.20;99.90
19132;DHT22;9698;51.976;7.570;2023-08-06T04:12:56;16.30;99.90
19132;DHT22;9698;51.976;7.570;2023-08-06T04:17:51;16.10;99.90
19132;DHT22;9698;51.976;7.570;2023-08-06T04:20:19;16.30;99.90
19132;DHT22;9698;51.976;7.570;2023-08-06T04:22:47;16.20;99.90
19132;DHT22;9698;51.976;7.570;2023-08-06T04:35:33;16.30;99.90
19132;DHT22;9698;51.976;7.570;2023-08-06T04:40:28;16.30;99.90
19132;DHT22;9698;51.976;7.570;2023-08-06T04:42:56;16.40;99.90
19132;DHT22;9698;51.976;7.570;2023-08-06T04:45:24;16.40;99.90
19132;DHT22;9698;51.976;7.570;2023-08-06T04:47:51;16.50;99.90
19132;DHT22;9698;51.976;7.570;2023-08-06T04:55:15;16.30;99.90
19132;DHT22;9698;51.976;7.570;2023-08-06T04:57:43;16.30;99.90
19132;DHT22;9698;51.976;7.570;2023-08-06T05:02:39;16.30;99.90
19132;DHT22;9698;51.976;7.570;2023-08-06T05:10:05;16.40;99.90
19132;DHT22;9698;51.976;7.570;2023-08-06T05:12:33;16.50;99.90
19132;DHT22;9698;51.976;7.570;2023-08-06T05:15:01;16.40;99.90
19132;DHT22;9698;51.976;7.570;2023-08-06T05:17:29;16.40;99.90
19132;DHT22;9698;51.976;7.570;2023-08-06T05:24:52;16.60;99.90
19132;DHT22;9698;51.976;7.570;2023-08-06T05:27:19;16.50;99.90
19132;DHT22;9698;51.976;7.570;2023-08-06T05:29:48;16.50;99.90
19132;DHT22;9698;51.976;7.570;2023-08-06T05:44:58;16.70;99.90
19132;DHT22;9698;51.976;7.570;2023-08-06T05:49:54;16.80;99.90
19132;DHT22;9698;51.976;7.570;2023-08-06T05:54:49;16.50;99.90
19132;DHT22;9698;51.976;7.570;2023-08-06T05:57:17;16.70;99.90
19132;DHT22;9698;51.976;7.570;2023-08-06T05:59:45;17.00;99.90
19132;DHT22;9698;51.976;7.570;2023-08-06T06:02:12;17.10;99.90
19132;DHT22;9698;51.976;7.570;2023-08-06T06:04:41;17.20;99.90
19132;DHT22;9698;51.976;7.570;2023-08-06T06:19:46;17.40;99.90
19132;DHT22;9698;51.976;7.570;2023-08-06T06:22:14;17.50;99.90
19132;DHT22;9698;51.976;7.570;2023-08-06T06:27:10;17.50;99.90
19132;DHT22;9698;51.976;7.570;2023-08-06T06:32:06;17.60;99.90
19132;DHT22;9698;51.976;7.570;2023-08-06T06:34:34;17.60;99.90
19132;DHT22;9698;51.976;7.570;2023-08-06T06:39:30;17.50;99.90
19132;DHT22;9698;51.976;7.570;2023-08-06T06:41:57;17.60;99.90
19132;DHT22;9698;51.976;7.570;2023-08-06T06:44:25;17.80;99.90
19132;DHT22;9698;51.976;7.570;2023-08-06T06:46:53;17.70;99.90
19132;DHT22;9698;51.976;7.570;2023-08-06T06:51:48;17.80;99.90
19132;DHT22;9698;51.976;7.570;2023-08-06T06:56:44;17.90;99.90
19132;DHT22;9698;51.976;7.570;2023-08-06T06:59:12;17.90;99.90
19132;DHT22;9698;51.976;7.570;2023-08-06T07:18:56;17.90;99.90
19132;DHT22;9698;51.976;7.570;2023-08-06T07:31:15;17.70;99.90
19132;DHT22;9698;51.976;7.570;2023-08-06T07:36:12;17.60;99.90
19132;DHT22;9698;51.976;7.570;2023-08-06T07:43:37;17.90;99.90
19132;DHT22;9698;51.976;7.570;2023-08-06T07:53:28;18.10;99.90
19132;DHT22;9698;51.976;7.570;2023-08-06T07:58:25;18.10;99.90
19132;DHT22;9698;51.976;7.570;2023-08-06T08:03:20;18.30;99.90
19132;DHT22;9698;51.976;7.570;2023-08-06T08:08:16;18.30;99.90
19132;DHT22;9698;51.976;7.570;2023-08-06T08:35:21;17.80;99.90
19132;DHT22;9698;51.976;7.570;2023-08-06T08:42:45;18.30;99.90
19132;DHT22;9698;51.976;7.570;2023-08-06T08:45:15;18.40;99.90
19132;DHT22;9698;51.976;7.570;2023-08-06T08:47:43;18.50;99.90
19132;DHT22;9698;51.976;7.570;2023-08-06T08:55:09;18.50;99.90
19132;DHT22;9698;51.976;7.570;2023-08-06T08:57:37;18.50;99.90
19132;DHT22;9698;51.976;7.570;2023-08-06T09:02:34;18.40;99.90
19132;DHT22;9698;51.976;7.570;2023-08-06T09:05:05;18.40;99.90
19132;DHT22;9698;51.976;7.570;2023-08-06T09:07:38;18.30;99.90
19132;DHT22;9698;51.976;7.570;2023-08-06T09:10:11;18.50;99.90
19132;DHT22;9698;51.976;7.570;2023-08-06T09:15:09;18.60;99.90
19132;DHT22;9698;51.976;7.570;2023-08-06T09:30:07;18.70;99.90
19132;DHT22;9698;51.976;7.570;2023-08-06T09:32:46;18.80;99.90
19132;DHT22;9698;51.976;7.570;2023-08-06T09:35:18;18.80;99.90
19132;DHT22;9698;51.976;7.570;2023-08-06T09:37:46;18.70;99.90
19132;DHT22;9698;51.976;7.570;2023-08-06T09:45:21;18.70;99.90
19132;DHT22;9698;51.976;7.570;2023-08-06T09:47:50;18.90;99.90
19132;DHT22;9698;51.976;7.570;2023-08-06T09:52:47;18.90;99.90
19132;DHT22;9698;51.976;7.570;2023-08-06T09:55:16;18.90;99.90
19132;DHT22;9698;51.976;7.570;2023-08-06T10:00:12;18.90;99.90
19132;DHT22;9698;51.976;7.570;2023-08-06T10:12:40;19.00;99.90
19132;DHT22;9698;51.976;7.570;2023-08-06T10:25:17;19.30;99.90
19132;DHT22;9698;51.976;7.570;2023-08-06T10:30:27;19.50;99.90
19132;DHT22;9698;51.976;7.570;2023-08-06T10:32:56;19.50;99.90
19132;DHT22;9698;51.976;7.570;2023-08-06T10:35:37;19.60;99.90
19132;DHT22;9698;51.976;7.570;2023-08-06T10:40:34;19.70;99.90
19132;DHT22;9698;51.976;7.570;2023-08-06T10:47:58;19.50;99.90
19132;DHT22;9698;51.976;7.570;2023-08-06T10:50:27;19.60;99.90
19132;DHT22;9698;51.976;7.570;2023-08-06T10:55:24;19.40;99.90
19132;DHT22;9698;51.976;7.570;2023-08-06T11:05:18;19.60;99.90
19132;DHT22;9698;51.976;7.570;2023-08-06T11:07:46;19.70;99.90
19132;DHT22;9698;51.976;7.570;2023-08-06T11:15:12;20.10;99.90
19132;DHT22;9698;51.976;7.570;2023-08-06T11:22:39;20.20;99.90
19132;DHT22;9698;51.976;7.570;2023-08-06T11:42:38;20.20;99.90
19132;DHT22;9698;51.976;7.570;2023-08-06T11:45:08;20.20;99.90
19132;DHT22;9698;51.976;7.570;2023-08-06T11:57:38;20.40;99.90
19132;DHT22;9698;51.976;7.570;2023-08-06T12:02:39;20.40;99.90
19132;DHT22;9698;51.976;7.570;2023-08-06T12:07:59;20.50;99.90
19132;DHT22;9698;51.976;7.570;2023-08-06T12:10:28;20.50;99.90
19132;DHT22;9698;51.976;7.570;2023-08-06T12:17:52;20.60;99.90
19132;DHT22;9698;51.976;7.570;2023-08-06T12:25:16;20.40;99.90
19132;DHT22;9698;51.976;7.570;2023-08-06T12:32:41;20.30;99.90
19132;DHT22;9698;51.976;7.570;2023-08-06T12:37:37;20.00;99.90
19132;DHT22;9698;51.976;7.570;2023-08-06T12:40:08;20.00;99.90
19132;DHT22;9698;51.976;7.570;2023-08-06T12:45:49;19.90;99.90
19132;DHT22;9698;51.976;7.570;2023-08-06T12:50:47;19.70;99.90
19132;DHT22;9698;51.976;7.570;2023-08-06T12:53:16;19.70;99.90
19132;DHT22;9698;51.976;7.570;2023-08-06T13:00:40;19.60;99.90
19132;DHT22;9698;51.976;7.570;2023-08-06T13:03:08;19.60;99.90
19132;DHT22;9698;51.976;7.570;2023-08-06T13:15:27;19.60;99.90
19132;DHT22;9698;51.976;7.570;2023-08-06T13:30:16;19.80;99.90
19132;DHT22;9698;51.976;7.570;2023-08-06T13:35:13;19.80;99.90
19132;DHT22;9698;51.976;7.570;2023-08-06T13:40:10;19.90;99.90
19132;DHT22;9698;51.976;7.570;2023-08-06T13:42:38;19.90;99.90
19132;DHT22;9698;51.976;7.570;2023-08-06T13:50:05;19.80;99.90
19132;DHT22;9698;51.976;7.570;2023-08-06T13:57:31;19.60;99.90
19132;DHT22;9698;51.976;7.570;2023-08-06T14:02:26;19.70;99.90
19132;DHT22;9698;51.976;7.570;2023-08-06T14:04:55;19.80;99.90
19132;DHT22;9698;51.976;7.570;2023-08-06T14:07:23;19.50;99.90
19132;DHT22;9698;51.976;7.570;2023-08-06T14:09:50;19.30;99.90
19132;DHT22;9698;51.976;7.570;2023-08-06T14:19:43;18.50;99.90
19132;DHT22;9698;51.976;7.570;2023-08-06T14:22:10;18.10;99.90
19132;DHT22;9698;51.976;7.570;2023-08-06T14:24:39;17.70;99.90
19132;DHT22;9698;51.976;7.570;2023-08-06T14:27:07;17.60;99.90
19132;DHT22;9698;51.976;7.570;2023-08-06T14:29:35;17.80;99.90
19132;DHT22;9698;51.976;7.570;2023-08-06T14:41:55;17.70;99.90
19132;DHT22;9698;51.976;7.570;2023-08-06T14:49:18;17.40;99.90
19132;DHT22;9698;51.976;7.570;2023-08-06T14:59:10;17.00;99.90
19132;DHT22;9698;51.976;7.570;2023-08-06T15:01:38;17.90;99.90
19132;DHT22;9698;51.976;7.570;2023-08-06T15:04:06;16.90;99.90
19132;DHT22;9698;51.976;7.570;2023-08-06T15:09:02;16.70;99.90
19132;DHT22;9698;51.976;7.570;2023-08-06T15:11:30;16.60;99.90
19132;DHT22;9698;51.976;7.570;2023-08-06T15:13:58;16.80;99.90
19132;DHT22;9698;51.976;7.570;2023-08-06T15:16:28;16.70;99.90
19132;DHT22;9698;51.976;7.570;2023-08-06T15:21:24;16.60;99.90
19132;DHT22;9698;51.976;7.570;2023-08-06T15:31:20;16.60;99.90
19132;DHT22;9698;51.976;7.570;2023-08-06T15:36:16;16.60;99.90
19132;DHT22;9698;51.976;7.570;2023-08-06T15:41:12;16.50;99.90
19132;DHT22;9698;51.976;7.570;2023-08-06T15:46:09;16.60;99.90
19132;DHT22;9698;51.976;7.570;2023-08-06T15:53:33;16.70;99.90
19132;DHT22;9698;51.976;7.570;2023-08-06T16:05:53;16.80;99.90
19132;DHT22;9698;51.976;7.570;2023-08-06T16:10:49;16.80;99.90
19132;DHT22;9698;51.976;7.570;2023-08-06T16:25:38;17.00;99.90
19132;DHT22;9698;51.976;7.570;2023-08-06T16:28:06;17.20;99.90
19132;DHT22;9698;51.976;7.570;2023-08-06T16:30:35;17.10;99.90
19132;DHT22;9698;51.976;7.570;2023-08-06T16:35:30;16.90;99.90
19132;DHT22;9698;51.976;7.570;2023-08-06T16:37:58;16.90;99.90
19132;DHT22;9698;51.976;7.570;2023-08-06T16:42:54;17.10;99.90
19132;DHT22;9698;51.976;7.570;2023-08-06T16:50:17;17.00;99.90
19132;DHT22;9698;51.976;7.570;2023-08-06T16:55:13;17.20;99.90
19132;DHT22;9698;51.976;7.570;2023-08-06T17:15:00;17.00;99.90
19132;DHT22;9698;51.976;7.570;2023-08-06T17:24:51;16.60;99.90
19132;DHT22;9698;51.976;7.570;2023-08-06T17:27:19;16.80;99.90
19132;DHT22;9698;51.976;7.570;2023-08-06T17:32:15;16.70;99.90
19132;DHT22;9698;51.976;7.570;2023-08-06T17:42:07;16.60;99.90
19132;DHT22;9698;51.976;7.570;2023-08-06T17:44:37;16.60;99.90
19132;DHT22;9698;51.976;7.570;2023-08-06T17:47:06;16.70;99.90
19132;DHT22;9698;51.976;7.570;2023-08-06T17:54:30;16.50;99.90
19132;DHT22;9698;51.976;7.570;2023-08-06T17:56:58;16.60;99.90
19132;DHT22;9698;51.976;7.570;2023-08-06T17:59:27;16.60;99.90
19132;DHT22;9698;51.976;7.570;2023-08-06T18:09:19;16.30;99.90
19132;DHT22;9698;51.976;7.570;2023-08-06T18:16:42;16.30;99.90
19132;DHT22;9698;51.976;7.570;2023-08-06T18:21:40;16.30;99.90
19132;DHT22;9698;51.976;7.570;2023-08-06T18:29:04;16.30;99.90
19132;DHT22;9698;51.976;7.570;2023-08-06T18:41:24;16.30;99.90
19132;DHT22;9698;51.976;7.570;2023-08-06T18:46:20;16.30;99.90
19132;DHT22;9698;51.976;7.570;2023-08-06T18:51:16;16.30;99.90
19132;DHT22;9698;51.976;7.570;2023-08-06T18:56:17;16.30;99.90
19132;DHT22;9698;51.976;7.570;2023-08-06T19:03:40;16.30;99.90
19132;DHT22;9698;51.976;7.570;2023-08-06T19:08:38;16.30;99.90
19132;DHT22;9698;51.976;7.570;2023-08-06T19:13:34;16.10;99.90
19132;DHT22;9698;51.976;7.570;2023-08-06T19:23:27;16.20;99.90
19132;DHT22;9698;51.976;7.570;2023-08-06T19:40:45;16.10;99.90
19132;DHT22;9698;51.976;7.570;2023-08-06T20:15:53;16.10;99.90
19132;DHT22;9698;51.976;7.570;2023-08-06T20:18:21;15.90;99.90
19132;DHT22;9698;51.976;7.570;2023-08-06T21:05:18;15.50;99.90
19132;DHT22;9698;51.976;7.570;2023-08-06T21:10:14;15.70;99.90
19132;DHT22;9698;51.976;7.570;2023-08-06T21:20:09;17.40;99.90
19132;DHT22;9698;51.976;7.570;2023-08-06T21:27:33;15.50;99.90
19132;DHT22;9698;51.976;7.570;2023-08-06T21:37:26;15.50;99.90
19132;DHT22;9698;51.976;7.570;2023-08-06T21:47:18;15.40;99.90
19132;DHT22;9698;51.976;7.570;2023-08-06T22:07:00;15.50;99.90
19132;DHT22;9698;51.976;7.570;2023-08-06T22:09:28;15.50;99.90
19132;DHT22;9698;51.976;7.570;2023-08-06T22:14:24;15.40;99.90
19132;DHT22;9698;51.976;7.570;2023-08-06T22:24:15;15.20;99.90
19132;DHT22;9698;51.976;7.570;2023-08-06T22:34:05;15.50;99.90
19132;DHT22;9698;51.976;7.570;2023-08-06T22:41:28;15.50;99.90
19132;DHT22;9698;51.976;7.570;2023-08-06T22:51:21;15.50;99.90
19132;DHT22;9698;51.976;7.570;2023-08-06T22:58:47;15.50;99.90
19132;DHT22;9698;51.976;7.570;2023-08-06T23:01:15;15.40;99.90
19132;DHT22;9698;51.976;7.570;2023-08-06T23:03:44;15.60;99.90
19132;DHT22;9698;51.976;7.570;2023-08-06T23:06:12;15.80;99.90
19132;DHT22;9698;51.976;7.570;2023-08-06T23:08:41;15.50;99.90
19132;DHT22;9698;51.976;7.570;2023-08-06T23:25:57;15.50;99.90
19132;DHT22;9698;51.976;7.570;2023-08-06T23:28:26;15.50;99.90
19132;DHT22;9698;51.976;7.570;2023-08-06T23:38:18;15.40;99.90
